createdAt,value
2022-10-30T00:02:37.278Z,21.55
2022-10-30T00:05:21.178Z,21.59
2022-10-30T00:08:10.088Z,21.46
2022-10-30T00:11:00.107Z,21.49
2022-10-30T00:13:45.823Z,21.55
2022-10-30T00:16:34.198Z,21.46
2022-10-30T00:19:29.060Z,21.54
2022-10-30T00:22:25.251Z,21.57
2022-10-30T00:25:14.481Z,21.54
2022-10-30T00:27:56.205Z,21.48
2022-10-30T00:30:46.092Z,21.54
2022-10-30T00:33:28.486Z,21.52
2022-10-30T00:36:19.188Z,21.44
2022-10-30T00:39:01.581Z,21.48
2022-10-30T00:41:50.114Z,21.54
2022-10-30T00:44:55.460Z,21.41
2022-10-30T00:47:52.096Z,21.42
2022-10-30T00:50:42.627Z,21.44
2022-10-30T00:53:31.104Z,21.44
2022-10-30T00:56:16.924Z,21.44
2022-10-30T00:59:10.105Z,21.39
2022-10-30T01:02:02.272Z,21.37
2022-10-30T01:04:53.489Z,21.45
2022-10-30T01:07:35.146Z,21.47
2022-10-30T01:10:25.548Z,21.45
2022-10-30T01:13:10.315Z,21.33
2022-10-30T01:16:42.496Z,21.35
2022-10-30T01:19:38.203Z,21.39
2022-10-30T01:22:48.496Z,21.42
2022-10-30T01:25:33.208Z,21.38
2022-10-30T01:28:54.091Z,21.38
2022-10-30T01:31:46.181Z,21.48
2022-10-30T01:34:57.266Z,21.45
2022-10-30T01:37:54.263Z,21.54
2022-10-30T01:40:44.443Z,21.58
2022-10-30T01:43:26.101Z,21.63
2022-10-30T01:46:50.531Z,21.68
2022-10-30T01:49:53.112Z,21.61
2022-10-30T01:52:57.679Z,21.59
2022-10-30T01:55:51.110Z,21.60
2022-10-30T01:58:49.490Z,21.74
2022-10-30T02:01:33.209Z,21.69
2022-10-30T02:04:22.472Z,21.72
2022-10-30T02:07:05.088Z,21.82
2022-10-30T02:09:55.381Z,21.92
2022-10-30T02:12:45.131Z,21.87
2022-10-30T02:15:34.207Z,22.13
2022-10-30T02:18:23.177Z,22.17
2022-10-30T02:21:12.447Z,22.31
2022-10-30T02:23:55.194Z,22.51
2022-10-30T02:26:44.084Z,22.52
2022-10-30T02:29:26.549Z,22.55
2022-10-30T02:32:15.390Z,22.65
2022-10-30T02:34:57.461Z,22.72
2022-10-30T02:37:47.175Z,22.87
2022-10-30T02:40:29.440Z,23.02
2022-10-30T02:43:18.090Z,23.04
2022-10-30T02:46:08.229Z,23.16
2022-10-30T02:48:56.461Z,23.19
2022-10-30T02:51:42.274Z,23.39
2022-10-30T02:54:30.468Z,23.43
2022-10-30T02:57:13.240Z,23.38
2022-10-30T02:59:55.374Z,23.55
2022-10-30T03:02:45.210Z,23.61
2022-10-30T03:05:28.517Z,23.78
2022-10-30T03:08:17.093Z,23.74
2022-10-30T03:11:07.768Z,23.95
2022-10-30T03:13:57.200Z,24.07
2022-10-30T03:16:46.173Z,24.13
2022-10-30T03:19:28.427Z,24.22
2022-10-30T03:22:17.166Z,24.35
2022-10-30T03:24:59.528Z,24.39
2022-10-30T03:27:49.082Z,24.40
2022-10-30T03:30:38.176Z,24.59
2022-10-30T03:33:20.351Z,24.78
2022-10-30T03:36:09.173Z,25.07
2022-10-30T03:38:58.161Z,25.21
2022-10-30T03:41:41.482Z,25.23
2022-10-30T03:44:30.163Z,25.46
2022-10-30T03:50:06.167Z,25.56
2022-10-30T03:52:48.449Z,25.66
2022-10-30T03:55:37.166Z,25.87
2022-10-30T03:58:20.449Z,25.94
2022-10-30T04:01:15.323Z,26.34
2022-10-30T04:04:03.458Z,26.68
2022-10-30T04:06:52.179Z,26.86
2022-10-30T04:09:34.582Z,27.20
2022-10-30T04:12:23.160Z,27.40
2022-10-30T04:15:05.518Z,27.51
2022-10-30T04:17:59.598Z,27.97
2022-10-30T04:20:50.450Z,28.01
2022-10-30T04:23:32.190Z,28.38
2022-10-30T04:26:21.137Z,28.63
2022-10-30T04:29:10.198Z,28.71
2022-10-30T04:31:59.507Z,28.94
2022-10-30T04:34:42.087Z,28.53
2022-10-30T04:37:30.434Z,29.05
2022-10-30T04:40:13.091Z,29.38
2022-10-30T04:43:04.129Z,29.59
2022-10-30T04:45:55.195Z,29.81
2022-10-30T04:48:44.567Z,29.53
2022-10-30T04:51:29.169Z,30.08
2022-10-30T04:54:23.121Z,29.10
2022-10-30T04:57:06.153Z,29.18
2022-10-30T04:59:57.155Z,30.13
2022-10-30T05:05:33.184Z,30.35
2022-10-30T05:08:16.491Z,30.52
2022-10-30T05:11:05.172Z,30.96
2022-10-30T05:13:54.162Z,30.73
2022-10-30T05:16:36.563Z,30.77
2022-10-30T05:19:25.289Z,30.99
2022-10-30T05:22:21.024Z,30.55
2022-10-30T05:25:10.182Z,30.34
2022-10-30T05:27:53.446Z,30.57
2022-10-30T05:30:44.254Z,30.61
2022-10-30T05:33:44.884Z,31.07
2022-10-30T05:36:35.149Z,31.36
2022-10-30T05:39:18.487Z,31.25
2022-10-30T05:42:11.227Z,31.59
2022-10-30T05:45:00.959Z,31.73
2022-10-30T05:47:51.195Z,31.50
2022-10-30T05:50:34.449Z,31.38
2022-10-30T05:53:33.163Z,31.39
2022-10-30T05:56:23.060Z,31.49
2022-10-30T05:59:12.470Z,31.50
2022-10-30T06:01:55.147Z,31.56
2022-10-30T06:04:37.392Z,31.74
2022-10-30T06:07:28.087Z,31.88
2022-10-30T06:10:24.249Z,31.95
2022-10-30T06:13:22.313Z,31.81
2022-10-30T06:19:39.231Z,31.48
2022-10-30T06:23:02.644Z,31.38
2022-10-30T06:25:58.156Z,31.65
2022-10-30T06:28:55.138Z,31.51
2022-10-30T06:31:38.616Z,31.63
2022-10-30T06:34:28.179Z,31.70
2022-10-30T06:37:10.548Z,31.36
2022-10-30T06:40:00.202Z,31.60
2022-10-30T06:43:01.793Z,31.47
2022-10-30T06:46:00.296Z,31.93
2022-10-30T06:48:44.464Z,31.55
2022-10-30T06:51:34.168Z,31.65
2022-10-30T06:54:16.615Z,31.80
2022-10-30T06:57:28.089Z,31.90
2022-10-30T07:00:41.287Z,31.82
2022-10-30T07:03:53.201Z,31.77
2022-10-30T07:06:42.070Z,31.59
2022-10-30T07:09:26.443Z,31.87
2022-10-30T07:12:15.198Z,31.93
2022-10-30T07:15:26.166Z,31.91
2022-10-30T07:18:23.464Z,31.95
2022-10-30T07:21:14.208Z,32.05
2022-10-30T07:24:03.204Z,32.02
2022-10-30T07:27:11.302Z,32.14
2022-10-30T07:30:06.089Z,31.97
2022-10-30T07:33:17.371Z,31.75
2022-10-30T07:36:24.179Z,32.03
2022-10-30T07:39:24.365Z,32.11
2022-10-30T07:42:21.194Z,32.09
2022-10-30T07:45:22.302Z,32.33
2022-10-30T07:48:29.097Z,32.24
2022-10-30T07:51:37.233Z,32.18
2022-10-30T07:54:21.525Z,31.87
2022-10-30T07:57:12.101Z,31.77
2022-10-30T08:00:15.502Z,31.75
2022-10-30T08:03:14.228Z,31.66
2022-10-30T08:06:04.453Z,31.83
2022-10-30T08:08:54.083Z,31.93
2022-10-30T08:11:37.463Z,31.52
2022-10-30T08:14:26.253Z,31.77
2022-10-30T08:17:11.458Z,31.78
2022-10-30T08:20:01.222Z,31.66
2022-10-30T08:22:55.730Z,31.57
2022-10-30T08:25:39.178Z,31.73
2022-10-30T08:28:31.665Z,31.94
2022-10-30T08:31:18.420Z,31.70
2022-10-30T08:34:19.217Z,31.66
2022-10-30T08:37:03.511Z,31.68
2022-10-30T08:39:52.203Z,31.71
2022-10-30T08:42:48.442Z,31.75
2022-10-30T08:45:38.146Z,31.82
2022-10-30T08:48:31.086Z,31.82
2022-10-30T08:51:20.468Z,31.85
2022-10-30T08:54:02.165Z,31.75
2022-10-30T08:56:50.448Z,32.00
2022-10-30T08:59:33.189Z,31.85
2022-10-30T09:02:21.419Z,31.84
2022-10-30T09:05:28.085Z,31.53
2022-10-30T09:08:36.440Z,31.88
2022-10-30T09:11:45.152Z,31.73
2022-10-30T09:14:33.487Z,31.83
2022-10-30T09:17:17.080Z,31.62
2022-10-30T09:19:59.907Z,31.71
2022-10-30T09:22:56.487Z,31.68
2022-10-30T09:25:51.162Z,31.68
2022-10-30T09:29:00.173Z,31.64
2022-10-30T09:31:48.634Z,31.55
2022-10-30T09:34:41.228Z,31.67
2022-10-30T09:37:36.104Z,31.70
2022-10-30T09:40:58.874Z,31.56
2022-10-30T09:44:26.061Z,31.59
2022-10-30T09:47:23.166Z,31.46
2022-10-30T09:50:14.787Z,31.42
2022-10-30T09:53:20.177Z,31.55
2022-10-30T09:56:11.486Z,31.42
2022-10-30T09:59:13.241Z,31.23
2022-10-30T10:02:01.559Z,31.41
2022-10-30T10:04:56.200Z,31.38
2022-10-30T10:08:03.560Z,31.44
2022-10-30T10:11:21.238Z,31.21
2022-10-30T10:14:10.596Z,31.17
2022-10-30T10:17:02.184Z,31.17
2022-10-30T10:19:59.076Z,31.15
2022-10-30T10:23:04.139Z,30.88
2022-10-30T10:26:00.160Z,30.79
2022-10-30T10:29:00.512Z,30.82
2022-10-30T10:32:19.158Z,30.63
2022-10-30T10:35:19.443Z,30.50
2022-10-30T10:38:26.176Z,30.39
2022-10-30T10:41:12.484Z,30.28
2022-10-30T10:44:25.097Z,30.21
2022-10-30T10:47:40.124Z,30.18
2022-10-30T10:50:48.648Z,29.98
2022-10-30T10:53:43.173Z,29.79
2022-10-30T10:56:33.292Z,29.80
2022-10-30T10:59:35.083Z,29.69
2022-10-30T11:02:39.268Z,29.55
2022-10-30T11:05:46.085Z,29.47
2022-10-30T11:08:41.072Z,29.31
2022-10-30T11:11:23.510Z,29.30
2022-10-30T11:14:33.076Z,29.18
2022-10-30T11:18:03.406Z,29.12
2022-10-30T11:21:10.991Z,29.03
2022-10-30T11:24:01.117Z,28.96
2022-10-30T11:26:43.465Z,28.87
2022-10-30T11:29:37.145Z,28.76
2022-10-30T11:32:27.610Z,28.68
2022-10-30T11:35:16.073Z,28.64
2022-10-30T11:38:19.426Z,28.52
2022-10-30T11:41:10.080Z,28.46
2022-10-30T11:43:54.476Z,28.39
2022-10-30T11:46:44.071Z,28.27
2022-10-30T11:50:06.218Z,28.13
2022-10-30T11:53:03.489Z,28.07
2022-10-30T11:55:54.149Z,27.99
2022-10-30T11:58:39.918Z,27.94
2022-10-30T12:01:50.140Z,27.80
2022-10-30T12:04:39.414Z,27.70
2022-10-30T12:07:37.068Z,27.64
2022-10-30T12:10:30.576Z,27.53
2022-10-30T12:13:20.152Z,27.52
2022-10-30T12:16:21.659Z,27.48
2022-10-30T12:19:17.131Z,27.39
2022-10-30T12:22:05.268Z,27.37
2022-10-30T12:24:59.057Z,27.25
2022-10-30T12:27:48.082Z,27.24
2022-10-30T12:30:30.418Z,27.09
2022-10-30T12:33:33.177Z,27.02
2022-10-30T12:36:31.152Z,27.03
2022-10-30T12:39:31.536Z,27.00
2022-10-30T12:42:33.153Z,26.89
2022-10-30T12:45:31.144Z,26.86
2022-10-30T12:48:16.814Z,26.75
2022-10-30T12:51:29.169Z,26.80
2022-10-30T12:54:40.477Z,26.73
2022-10-30T12:57:45.145Z,26.63
2022-10-30T13:00:27.591Z,26.59
2022-10-30T13:03:46.153Z,26.58
2022-10-30T13:06:35.592Z,26.53
2022-10-30T13:09:34.152Z,26.53
2022-10-30T13:12:33.136Z,26.41
2022-10-30T13:15:37.149Z,26.44
2022-10-30T13:18:22.597Z,26.44
2022-10-30T13:21:28.089Z,26.29
2022-10-30T13:24:23.816Z,26.29
2022-10-30T13:27:16.149Z,26.22
2022-10-30T13:30:19.436Z,26.16
2022-10-30T13:33:19.176Z,26.12
2022-10-30T13:36:09.814Z,26.10
2022-10-30T13:39:05.161Z,25.94
2022-10-30T13:42:17.934Z,25.93
2022-10-30T13:45:29.156Z,25.91
2022-10-30T13:48:40.182Z,25.87
2022-10-30T13:51:50.598Z,25.73
2022-10-30T13:55:08.064Z,25.83
2022-10-30T13:58:09.800Z,25.75
2022-10-30T14:01:20.246Z,25.71
2022-10-30T14:04:14.364Z,25.72
2022-10-30T14:07:23.165Z,25.55
2022-10-30T14:10:48.113Z,25.69
2022-10-30T14:13:41.139Z,25.53
2022-10-30T14:16:32.296Z,25.59
2022-10-30T14:19:23.152Z,25.54
2022-10-30T14:22:17.985Z,25.47
2022-10-30T14:25:08.350Z,25.50
2022-10-30T14:27:57.482Z,25.37
2022-10-30T14:30:46.205Z,25.46
2022-10-30T14:33:49.969Z,25.48
2022-10-30T14:36:48.082Z,25.42
2022-10-30T14:39:44.161Z,25.34
2022-10-30T14:42:32.169Z,25.41
2022-10-30T14:45:57.149Z,25.31
2022-10-30T14:49:03.653Z,25.31
2022-10-30T14:52:14.097Z,25.29
2022-10-30T14:55:11.116Z,25.21
2022-10-30T14:57:55.679Z,25.19
2022-10-30T15:00:45.063Z,25.14
2022-10-30T15:03:56.433Z,25.13
2022-10-30T15:07:12.020Z,25.10
2022-10-30T15:10:21.109Z,24.98
2022-10-30T15:13:18.128Z,25.05
2022-10-30T15:16:23.160Z,24.98
2022-10-30T15:19:15.535Z,25.02
2022-10-30T15:22:01.134Z,24.90
2022-10-30T15:24:43.594Z,24.94
2022-10-30T15:27:35.126Z,24.96
2022-10-30T15:30:30.076Z,24.94
2022-10-30T15:33:32.067Z,24.93
2022-10-30T15:36:39.147Z,24.99
2022-10-30T15:39:21.368Z,24.79
2022-10-30T15:42:14.057Z,24.81
2022-10-30T15:45:02.452Z,24.82
2022-10-30T15:47:45.679Z,24.76
2022-10-30T15:50:35.067Z,24.69
2022-10-30T15:53:28.434Z,24.65
2022-10-30T15:56:29.064Z,24.55
2022-10-30T15:59:21.131Z,24.59
2022-10-30T16:02:03.703Z,24.63
2022-10-30T16:04:53.156Z,24.54
2022-10-30T16:07:35.556Z,24.65
2022-10-30T16:10:25.162Z,24.62
2022-10-30T16:13:07.532Z,24.54
2022-10-30T16:15:57.150Z,24.57
2022-10-30T16:18:40.557Z,24.50
2022-10-30T16:21:34.144Z,24.47
2022-10-30T16:24:26.109Z,24.45
2022-10-30T16:27:26.627Z,24.40
2022-10-30T16:30:30.237Z,24.44
2022-10-30T16:33:20.545Z,24.41
2022-10-30T16:36:04.090Z,24.33
2022-10-30T16:38:57.073Z,24.30
2022-10-30T16:41:41.537Z,24.24
2022-10-30T16:44:44.154Z,24.31
2022-10-30T16:47:33.045Z,24.22
2022-10-30T16:50:25.145Z,24.21
2022-10-30T16:53:44.120Z,24.12
2022-10-30T16:56:32.835Z,24.10
2022-10-30T16:59:46.115Z,24.12
2022-10-30T17:02:43.612Z,24.13
2022-10-30T17:05:45.032Z,24.11
2022-10-30T17:09:04.109Z,24.07
2022-10-30T17:11:49.708Z,24.06
2022-10-30T17:14:38.117Z,23.96
2022-10-30T17:17:38.547Z,23.91
2022-10-30T17:20:46.164Z,23.89
2022-10-30T17:23:35.109Z,23.84
2022-10-30T17:26:27.057Z,23.81
2022-10-30T17:30:00.212Z,23.81
2022-10-30T17:32:52.444Z,23.83
2022-10-30T17:35:35.021Z,23.79
2022-10-30T17:38:17.513Z,23.81
2022-10-30T17:41:06.169Z,23.85
2022-10-30T17:44:02.570Z,23.89
2022-10-30T17:46:45.206Z,23.81
2022-10-30T17:49:37.047Z,23.73
2022-10-30T17:52:25.861Z,23.78
2022-10-30T17:55:34.164Z,23.78
2022-10-30T17:58:16.538Z,23.75
2022-10-30T18:01:06.330Z,23.70
2022-10-30T18:03:48.464Z,23.71
2022-10-30T18:06:37.206Z,23.65
2022-10-30T18:09:20.636Z,23.56
2022-10-30T18:12:09.588Z,23.45
2022-10-30T18:14:52.579Z,23.45
2022-10-30T18:17:41.166Z,23.62
2022-10-30T18:20:23.480Z,23.45
2022-10-30T18:23:31.467Z,23.52
2022-10-30T18:26:15.761Z,23.39
2022-10-30T18:29:05.038Z,23.44
2022-10-30T18:31:54.727Z,23.40
2022-10-30T18:34:36.173Z,23.29
2022-10-30T18:37:25.588Z,23.30
2022-10-30T18:40:07.071Z,23.27
2022-10-30T18:42:49.638Z,23.35
2022-10-30T18:45:51.122Z,23.38
2022-10-30T18:48:40.083Z,23.30
2022-10-30T18:51:40.151Z,23.20
2022-10-30T18:54:22.383Z,23.31
2022-10-30T18:57:11.046Z,23.29
2022-10-30T19:00:01.829Z,23.32
2022-10-30T19:02:45.141Z,23.21
2022-10-30T19:05:35.346Z,23.28
2022-10-30T19:08:25.022Z,23.19
2022-10-30T19:11:07.867Z,23.31
2022-10-30T19:13:57.114Z,23.33
2022-10-30T19:16:46.032Z,23.34
2022-10-30T19:19:35.039Z,23.32
2022-10-30T19:22:17.642Z,23.29
2022-10-30T19:25:06.069Z,23.20
2022-10-30T19:27:55.424Z,23.24
2022-10-30T19:30:38.215Z,23.23
2022-10-30T19:33:31.554Z,23.13
2022-10-30T19:36:14.207Z,23.10
2022-10-30T19:38:57.136Z,23.08
2022-10-30T19:41:47.204Z,23.05
2022-10-30T19:44:36.428Z,23.02
2022-10-30T19:47:19.128Z,23.03
2022-10-30T19:50:08.037Z,23.09
2022-10-30T19:52:50.535Z,22.99
2022-10-30T19:55:42.189Z,23.01
2022-10-30T19:58:26.134Z,22.87
2022-10-30T20:01:15.388Z,22.92
2022-10-30T20:03:57.426Z,22.84
2022-10-30T20:06:46.178Z,22.86
2022-10-30T20:09:29.469Z,22.82
2022-10-30T20:12:18.187Z,22.78
2022-10-30T20:15:00.403Z,22.79
2022-10-30T20:17:49.136Z,22.78
2022-10-30T20:20:37.440Z,22.75
2022-10-30T20:23:35.191Z,22.73
2022-10-30T20:26:39.439Z,22.84
2022-10-30T20:29:28.036Z,22.77
2022-10-30T20:32:23.947Z,22.70
2022-10-30T20:35:13.106Z,22.50
2022-10-30T20:38:17.090Z,22.59
2022-10-30T20:41:01.185Z,22.55
2022-10-30T20:43:52.138Z,22.55
2022-10-30T20:46:40.407Z,22.54
2022-10-30T20:49:23.115Z,22.43
2022-10-30T20:52:05.425Z,22.54
2022-10-30T20:54:54.149Z,22.46
2022-10-30T21:00:30.029Z,22.29
2022-10-30T21:03:19.424Z,22.46
2022-10-30T21:06:07.110Z,22.51
2022-10-30T21:08:49.303Z,22.41
2022-10-30T21:11:38.100Z,22.30
2022-10-30T21:14:26.412Z,22.37
2022-10-30T21:17:09.097Z,22.43
2022-10-30T21:19:51.280Z,22.31
2022-10-30T21:22:40.432Z,22.38
2022-10-30T21:25:28.441Z,22.30
2022-10-30T21:28:11.165Z,22.28
2022-10-30T21:31:05.945Z,22.25
2022-10-30T21:34:01.151Z,22.34
2022-10-30T21:36:43.418Z,22.36
2022-10-30T21:39:32.011Z,22.27
2022-10-30T21:42:20.424Z,22.20
2022-10-30T21:45:03.115Z,22.13
2022-10-30T21:47:51.402Z,22.16
2022-10-30T21:50:33.144Z,22.12
2022-10-30T21:53:21.380Z,22.19
2022-10-30T21:56:04.160Z,22.13
2022-10-30T21:58:46.742Z,22.13
2022-10-30T22:01:42.078Z,22.09
2022-10-30T22:04:31.702Z,22.17
2022-10-30T22:07:13.014Z,22.09
2022-10-30T22:10:01.406Z,22.06
2022-10-30T22:12:43.083Z,22.07
2022-10-30T22:15:32.002Z,22.01
2022-10-30T22:18:21.096Z,22.06
2022-10-30T22:21:16.009Z,22.01
2022-10-30T22:23:58.437Z,22.01
2022-10-30T22:26:47.015Z,21.95
2022-10-30T22:29:36.113Z,21.97
2022-10-30T22:32:24.991Z,22.07
2022-10-30T22:35:14.097Z,22.08
2022-10-30T22:38:05.995Z,22.17
2022-10-30T22:40:48.387Z,22.13
2022-10-30T22:43:37.066Z,22.17
2022-10-30T22:46:20.392Z,22.16
2022-10-30T22:49:09.003Z,22.15
2022-10-30T22:51:58.133Z,22.06
2022-10-30T22:54:46.386Z,22.15
2022-10-30T22:57:28.149Z,22.13
2022-10-30T23:00:19.236Z,22.15
2022-10-30T23:03:02.689Z,22.19
2022-10-30T23:05:45.258Z,22.23
2022-10-30T23:08:34.015Z,22.16
2022-10-30T23:11:23.974Z,22.10
2022-10-30T23:14:06.372Z,22.05
2022-10-30T23:16:56.002Z,22.07
2022-10-30T23:19:38.393Z,22.06
2022-10-30T23:22:27.137Z,22.06
2022-10-30T23:25:09.400Z,22.03
2022-10-30T23:27:58.658Z,22.08
2022-10-30T23:30:42.443Z,21.97
2022-10-30T23:33:31.102Z,22.07
2022-10-30T23:36:14.372Z,22.05
2022-10-30T23:39:08.034Z,21.97
2022-10-30T23:41:58.001Z,21.94
2022-10-30T23:44:40.277Z,21.90
2022-10-30T23:47:28.996Z,21.81
2022-10-30T23:50:18.608Z,21.70
2022-10-30T23:53:00.081Z,21.69
2022-10-30T23:55:42.255Z,21.75
2022-10-30T23:58:30.993Z,21.81
